Time;durP1;ratioP1;P1;durP2;ratioP2;P2;SDS_P1;SDS_P2;PMS_P1;PMS_P2;Temp;Humidity;BMP_temperature;BMP_pressure;BME280_temperature;BME280_humidity;BME280_pressure;Samples;Min_cycle;Max_cycle;Signal;HPM_P1;HPM_P2
2022/11/23 00:01:38;;;;;;;37.60;18.33;;;;;;;13.80;100.00;99384.59;4989581;28;20035;-59
2022/11/23 00:04:06;;;;;;;32.30;16.35;;;;;;;13.84;100.00;99383.00;4981271;28;20099;-59
2022/11/23 00:06:33;;;;;;;39.33;15.80;;;;;;;14.10;100.00;99376.03;4985539;28;20041;-59
2022/11/23 00:08:58;;;;;;;;;;;;;;;13.77;100.00;99389.41;4987403;28;20273;-58
2022/11/23 00:11:25;;;;;;;39.20;16.80;;;;;;;13.94;100.00;99385.00;4988871;28;19977;-60
2022/11/23 00:13:51;;;;;;;39.93;17.87;;;;;;;14.40;100.00;99379.19;4986401;28;20069;-60
2022/11/23 00:16:19;;;;;;;40.55;17.60;;;;;;;14.39;100.00;99383.78;4987861;28;20360;-61
2022/11/23 00:18:46;;;;;;;37.00;17.10;;;;;;;14.26;100.00;99381.50;4987865;28;20122;-60
2022/11/23 00:21:15;;;;;;;38.70;17.85;;;;;;;14.96;100.00;99386.09;4985636;28;20271;-60
2022/11/23 00:23:41;;;;;;;43.03;19.23;;;;;;;14.25;100.00;99386.09;4981068;28;20077;-60
2022/11/23 00:26:08;;;;;;;44.27;20.03;;;;;;;14.42;100.00;99385.97;4989857;28;20268;-60
2022/11/23 00:28:37;;;;;;;44.42;19.17;;;;;;;14.10;100.00;99389.47;4984313;28;20288;-60
2022/11/23 00:31:03;;;;;;;61.80;17.27;;;;;;;13.89;100.00;99397.31;4986459;28;20042;-60
2022/11/23 00:33:29;;;;;;;;;;;;;;;14.14;100.00;99398.63;4986692;28;20344;-60
2022/11/23 00:36:03;;;;;;;36.83;17.70;;;;;;;14.25;100.00;99401.41;4988729;28;19925;-59
2022/11/23 00:38:29;;;;;;;39.20;16.97;;;;;;;13.88;100.00;99397.56;4989710;28;20057;-60
2022/11/23 00:41:03;;;;;;;;;;;;;;;13.18;100.00;99393.50;4972777;28;20269;-61
2022/11/23 00:43:29;;;;;;;37.40;17.70;;;;;;;14.14;100.00;99411.25;4989868;28;19914;-60
2022/11/23 00:46:04;;;;;;;39.93;17.10;;;;;;;14.49;100.00;99399.19;4988370;28;20269;-59
2022/11/23 00:48:30;;;;;;;42.93;16.67;;;;;;;14.17;100.00;99400.81;4982773;28;20273;-61
2022/11/23 00:50:59;;;;;;;48.47;19.07;;;;;;;14.26;100.00;99398.47;4984770;28;20298;-61
2022/11/23 00:53:25;;;;;;;49.00;21.40;;;;;;;14.44;100.00;99399.97;4969204;28;20296;-57
2022/11/23 00:55:52;;;;;;;39.45;19.10;;;;;;;13.76;100.00;99420.03;4984840;28;20307;-60
2022/11/23 00:58:20;;;;;;;37.90;18.73;;;;;;;13.75;100.00;99404.13;4983991;28;20064;-62
2022/11/23 01:00:46;;;;;;;38.27;16.20;;;;;;;13.87;100.00;99407.50;4991942;28;20296;-59
2022/11/23 01:03:12;;;;;;;51.08;21.30;;;;;;;13.25;100.00;99413.97;4981035;28;20282;-60
2022/11/23 01:05:38;;;;;;;48.97;21.25;;;;;;;13.83;100.00;99406.38;4978682;28;20057;-60
2022/11/23 01:08:04;;;;;;;43.50;18.27;;;;;;;13.25;100.00;99422.84;4988148;28;20184;-60
2022/11/23 01:10:30;;;;;;;;;;;;;;;13.74;100.00;99414.09;4991185;28;20037;-60
2022/11/23 01:12:56;;;;;;;34.03;17.87;;;;;;;13.86;100.00;99431.94;4995901;28;19918;-58
2022/11/23 01:15:22;;;;;;;53.10;20.63;;;;;;;13.42;100.00;99416.63;4982318;28;20289;-60
2022/11/23 01:17:51;;;;;;;36.53;15.80;;;;;;;13.47;100.00;99425.56;4985906;28;20051;-60
2022/11/23 01:20:16;;;;;;;32.97;15.27;;;;;;;14.12;100.00;99424.97;4982146;28;20303;-60
2022/11/23 01:22:42;;;;;;;37.92;17.00;;;;;;;14.04;100.00;99436.16;4981388;28;20082;-61
2022/11/23 01:25:08;;;;;;;;;;;;;;;14.07;100.00;99416.84;4991239;28;20034;-60
2022/11/23 01:27:36;;;;;;;;;;;;;;;13.88;100.00;99417.19;4988921;28;19981;-60
2022/11/23 01:30:02;;;;;;;42.33;16.13;;;;;;;13.79;100.00;99418.69;4986620;28;19914;-59
2022/11/23 01:32:28;;;;;;;;;;;;;;;14.20;100.00;99427.19;4988641;28;20103;-59
2022/11/23 01:34:55;;;;;;;30.95;11.55;;;;;;;13.95;100.00;99425.03;4988833;28;19918;-60
2022/11/23 01:37:21;;;;;;;25.48;11.40;;;;;;;13.58;100.00;99428.38;4982390;28;20046;-59
2022/11/23 01:39:47;;;;;;;29.47;12.50;;;;;;;13.48;100.00;99431.75;4989641;28;20133;-60
2022/11/23 01:42:13;;;;;;;22.88;12.07;;;;;;;13.43;100.00;99435.19;4985692;28;20034;-59
2022/11/23 01:44:40;;;;;;;33.93;10.37;;;;;;;13.20;100.00;99441.56;4988959;28;20080;-59
2022/11/23 01:47:07;;;;;;;17.07;7.53;;;;;;;13.45;100.00;99451.06;4991425;28;20285;-60
2022/11/23 01:49:39;;;;;;;26.03;8.07;;;;;;;13.89;100.00;99440.31;4995679;28;20272;-60
2022/11/23 01:52:18;;;;;;;25.27;8.17;;;;;;;13.55;100.00;99432.38;4991267;28;20265;-60
2022/11/23 01:54:50;;;;;;;28.73;9.87;;;;;;;13.55;100.00;99437.75;5056299;28;20277;-58
2022/11/23 01:57:31;;;;;;;23.10;11.00;;;;;;;13.44;100.00;99454.81;4969649;28;20286;-59
2022/11/23 01:59:59;;;;;;;35.13;11.67;;;;;;;13.12;100.00;99441.97;4964534;29;20262;-60
2022/11/23 02:02:29;;;;;;;32.37;12.43;;;;;;;12.50;100.00;99454.44;4971428;28;20338;-60
2022/11/23 02:04:58;;;;;;;29.83;12.23;;;;;;;13.17;100.00;99450.13;4969869;28;20272;-60
2022/11/23 02:07:24;;;;;;;36.40;16.93;;;;;;;13.04;100.00;99449.41;4963807;28;20293;-59
2022/11/23 02:09:51;;;;;;;50.45;16.00;;;;;;;12.77;100.00;99459.97;4959460;28;20283;-60
2022/11/23 02:12:17;;;;;;;40.27;18.27;;;;;;;13.38;100.00;99453.88;4952445;28;20044;-60
2022/11/23 02:14:43;;;;;;;34.63;14.75;;;;;;;13.36;100.00;99444.44;4961681;29;20349;-59
2022/11/23 02:17:09;;;;;;;30.23;13.73;;;;;;;13.29;100.00;99469.59;4966483;28;20055;-60
2022/11/23 02:20:01;;;;;;;35.72;13.00;;;;;;;13.37;100.00;99463.00;4971823;28;20040;-60
2022/11/23 02:22:51;;;;;;;35.57;14.57;;;;;;;13.02;100.00;99467.63;4996229;28;20066;-61
2022/11/23 02:25:44;;;;;;;32.43;13.77;;;;;;;13.20;100.00;99463.84;4969693;28;20273;-60
2022/11/23 02:28:12;;;;;;;29.17;11.70;;;;;;;13.03;100.00;99447.78;4970616;28;20276;-60
2022/11/23 02:30:40;;;;;;;28.20;13.57;;;;;;;13.50;100.00;99477.97;4967418;29;20273;-61
2022/11/23 02:33:06;;;;;;;35.77;14.57;;;;;;;13.67;100.00;99461.00;4974645;28;20262;-60
2022/11/23 02:35:33;;;;;;;30.00;11.13;;;;;;;13.47;100.00;99463.16;4971971;28;20301;-60
2022/11/23 02:38:04;;;;;;;31.07;13.87;;;;;;;13.04;100.00;99464.69;4971069;28;20066;-59
2022/11/23 02:40:35;;;;;;;28.10;12.13;;;;;;;13.12;100.00;99468.81;4970540;29;20303;-59
2022/11/23 02:43:01;;;;;;;28.53;9.23;;;;;;;13.58;100.00;99466.00;4969336;29;20325;-59
2022/11/23 02:45:37;;;;;;;32.28;8.60;;;;;;;13.84;100.00;99472.50;4966986;28;20266;-60
2022/11/23 02:48:03;;;;;;;16.27;6.70;;;;;;;13.93;100.00;99469.38;4969382;29;20031;-60
2022/11/23 02:50:29;;;;;;;18.00;6.80;;;;;;;14.28;100.00;99466.25;4968280;28;20270;-60
2022/11/23 02:52:55;;;;;;;17.05;6.50;;;;;;;14.68;100.00;99464.19;4970503;29;20039;-60
2022/11/23 02:55:20;;;;;;;23.63;7.57;;;;;;;14.44;100.00;99469.09;4981198;28;20047;-61
2022/11/23 02:57:46;;;;;;;36.60;9.03;;;;;;;14.37;100.00;99481.91;5002336;28;20284;-58
2022/11/23 03:00:14;;;;;;;27.87;10.53;;;;;;;14.61;100.00;99471.66;4995155;28;20034;-61
2022/11/23 03:02:41;;;;;;;24.60;8.73;;;;;;;14.44;100.00;99477.16;4982346;28;20359;-59
2022/11/23 03:05:10;;;;;;;21.47;9.57;;;;;;;13.91;100.00;99474.97;4991645;28;20305;-60
2022/11/23 03:07:35;;;;;;;27.73;11.23;;;;;;;14.15;100.00;99475.53;4991220;28;20313;-58
2022/11/23 03:10:01;;;;;;;26.38;10.77;;;;;;;14.67;100.00;99473.31;5011064;28;20035;-60
2022/11/23 03:12:28;;;;;;;26.20;10.33;;;;;;;14.77;100.00;99478.00;5014033;28;20031;-59
2022/11/23 03:14:54;;;;;;;20.30;9.00;;;;;;;14.45;100.00;99482.28;4993267;28;20264;-57
2022/11/23 03:17:20;;;;;;;;;;;;;;;14.51;100.00;99471.56;4986415;28;20047;-60
2022/11/23 03:19:46;;;;;;;19.83;6.77;;;;;;;14.72;100.00;99483.34;5000904;28;19921;-58
2022/11/23 03:22:13;;;;;;;17.88;6.20;;;;;;;14.73;100.00;99476.91;5006159;28;20094;-59
2022/11/23 03:24:38;;;;;;;;;;;;;;;14.79;100.00;99472.38;5008420;28;20107;-60
2022/11/23 03:27:07;;;;;;;17.63;5.67;;;;;;;14.81;100.00;99483.69;5053662;28;19973;-60
2022/11/23 03:29:33;;;;;;;10.70;4.70;;;;;;;14.86;100.00;99481.03;5001398;28;20265;-59
2022/11/23 03:32:04;;;;;;;17.67;4.47;;;;;;;14.97;100.00;99479.25;5008256;28;20035;-60
2022/11/23 03:34:31;;;;;;;17.63;4.80;;;;;;;15.11;100.00;99479.59;4983278;28;20272;-61
2022/11/23 03:36:56;;;;;;;17.10;4.77;;;;;;;14.68;100.00;99482.22;4991120;28;20285;-60
2022/11/23 03:39:23;;;;;;;14.97;4.97;;;;;;;14.34;100.00;99491.31;4981368;28;20031;-60
2022/11/23 03:41:49;;;;;;;17.85;5.22;;;;;;;14.49;100.00;99486.06;4988938;28;20274;-60
2022/11/23 03:44:17;;;;;;;14.77;5.53;;;;;;;14.53;100.00;99489.06;4973929;28;20058;-60
2022/11/23 03:46:43;;;;;;;23.90;5.78;;;;;;;14.72;100.00;99481.47;4986342;28;20265;-60
2022/11/23 03:49:11;;;;;;;24.38;7.03;;;;;;;14.54;100.00;99489.91;4986218;28;20102;-59
2022/11/23 03:51:37;;;;;;;25.67;7.40;;;;;;;14.14;100.00;99495.41;4986237;28;20035;-59
2022/11/23 03:54:03;;;;;;;20.20;6.22;;;;;;;14.26;100.00;99479.13;4992771;28;20336;-60
2022/11/23 03:56:29;;;;;;;20.27;5.95;;;;;;;14.19;100.00;99479.34;4992747;28;20031;-59
2022/11/23 03:58:55;;;;;;;20.70;6.23;;;;;;;13.71;100.00;99486.31;4957977;28;20042;-59
2022/11/23 04:01:22;;;;;;;11.33;5.47;;;;;;;13.99;100.00;99489.84;4984804;28;20268;-60
2022/11/23 04:03:55;;;;;;;19.43;5.57;;;;;;;14.12;100.00;99486.78;4975090;28;20295;-61
2022/11/23 04:06:28;;;;;;;20.47;6.00;;;;;;;14.23;100.00;99484.19;4979203;28;20269;-61
2022/11/23 04:09:00;;;;;;;18.93;5.27;;;;;;;13.95;100.00;99486.84;4991959;28;20270;-58
2022/11/23 04:11:48;;;;;;;16.80;4.83;;;;;;;13.72;100.00;99487.94;4994279;28;20292;-59
2022/11/23 04:14:15;;;;;;;20.00;4.20;;;;;;;14.46;100.00;99491.16;4988062;28;21015;-59
2022/11/23 04:16:41;;;;;;;16.47;4.07;;;;;;;14.15;100.00;99478.22;4975311;28;20042;-60
2022/11/23 04:19:07;;;;;;;23.30;4.60;;;;;;;14.01;100.00;99483.19;4967581;28;20324;-61
2022/11/23 04:21:32;;;;;;;17.00;4.45;;;;;;;14.02;100.00;99479.44;4977274;28;20034;-60
2022/11/23 04:23:59;;;;;;;11.98;3.70;;;;;;;14.00;100.00;99483.41;4981037;28;20038;-60
2022/11/23 04:26:26;;;;;;;21.13;5.33;;;;;;;14.03;100.00;99480.22;4976636;28;20038;-60
2022/11/23 04:28:52;;;;;;;11.07;4.17;;;;;;;14.06;100.00;99477.03;4985780;28;20274;-60
2022/11/23 04:31:19;;;;;;;21.83;4.83;;;;;;;14.04;100.00;99493.41;4990009;28;20045;-60
2022/11/23 04:33:55;;;;;;;16.97;4.57;;;;;;;13.25;100.00;99481.91;4993206;28;20300;-59
2022/11/23 04:36:22;;;;;;;11.53;3.97;;;;;;;14.04;100.00;99488.03;4982598;28;20288;-60
2022/11/23 04:38:49;;;;;;;15.50;5.10;;;;;;;14.09;100.00;99487.31;4985829;28;20299;-59
2022/11/23 04:41:19;;;;;;;9.43;3.90;;;;;;;14.05;100.00;99478.09;4981852;28;20039;-59
2022/11/23 04:43:47;;;;;;;18.58;5.10;;;;;;;14.69;100.00;99481.16;4983984;28;20277;-59
2022/11/23 04:46:15;;;;;;;22.63;4.13;;;;;;;13.96;100.00;99483.13;4981826;28;20035;-59
2022/11/23 04:48:44;;;;;;;14.33;3.50;;;;;;;13.85;100.00;99492.13;5004137;28;20284;-59
2022/11/23 04:51:09;;;;;;;23.90;4.57;;;;;;;14.05;100.00;99478.09;4980336;28;20269;-57
2022/11/23 04:53:38;;;;;;;21.20;4.33;;;;;;;13.45;100.00;99486.78;4984187;28;20034;-60
2022/11/23 04:56:03;;;;;;;12.60;4.07;;;;;;;14.11;100.00;99487.03;4989324;28;20752;-60
2022/11/23 04:58:35;;;;;;;13.97;3.80;;;;;;;14.12;100.00;99483.28;4989428;28;20280;-60
2022/11/23 05:01:02;;;;;;;19.80;3.50;;;;;;;14.27;100.00;99474.56;4962833;28;20357;-58
2022/11/23 05:03:30;;;;;;;16.47;3.80;;;;;;;13.72;100.00;99474.50;4970382;28;20277;-59
2022/11/23 05:05:59;;;;;;;;;;;;;;;13.49;100.00;99470.97;4982790;28;20260;-60
2022/11/23 05:08:34;;;;;;;27.20;4.68;;;;;;;13.64;100.00;99469.56;5017169;28;19921;-60
2022/11/23 05:11:15;;;;;;;17.30;3.40;;;;;;;13.76;100.00;99465.69;4969867;28;20064;-59
2022/11/23 05:13:41;;;;;;;;;;;;;;;14.07;100.00;99472.47;4973047;28;20284;-60
2022/11/23 05:16:07;;;;;;;13.10;3.17;;;;;;;13.82;100.00;99471.91;4975454;28;19918;-60
2022/11/23 05:18:33;;;;;;;12.50;3.20;;;;;;;13.77;100.00;99472.69;4985144;28;20027;-60
2022/11/23 05:20:59;;;;;;;27.85;3.83;;;;;;;13.95;100.00;99483.38;4991600;28;20035;-59
2022/11/23 05:23:25;;;;;;;12.55;3.75;;;;;;;13.62;100.00;99484.06;5003578;28;20034;-57
2022/11/23 05:25:52;;;;;;;21.77;5.17;;;;;;;13.91;100.00;99469.59;4981830;28;20031;-59
2022/11/23 05:28:19;;;;;;;;;;;;;;;13.38;100.00;99482.59;4989306;28;20269;-56
2022/11/23 05:30:47;;;;;;;15.35;4.25;;;;;;;14.01;100.00;99483.19;4980179;28;19959;-58
2022/11/23 05:33:12;;;;;;;;;;;;;;;13.47;100.00;99491.91;5000362;28;20053;-59
2022/11/23 05:35:38;;;;;;;17.93;3.10;;;;;;;13.52;100.00;99483.91;4982265;28;19925;-59
2022/11/23 05:38:05;;;;;;;15.57;3.67;;;;;;;13.67;100.00;99475.22;4988470;28;20352;-58
2022/11/23 05:40:32;;;;;;;21.10;3.10;;;;;;;14.09;100.00;99487.31;5011009;28;20099;-60
2022/11/23 05:42:59;;;;;;;18.77;3.47;;;;;;;14.03;100.00;99486.41;4999880;28;20277;-59
2022/11/23 05:45:26;;;;;;;23.90;4.35;;;;;;;13.82;100.00;99498.78;4987113;28;20277;-60
2022/11/23 05:47:57;;;;;;;13.50;3.20;;;;;;;13.62;100.00;99502.88;5010662;28;20035;-59
2022/11/23 05:50:49;;;;;;;16.30;3.83;;;;;;;13.51;100.00;99487.66;4997792;28;20274;-58
2022/11/23 05:53:24;;;;;;;13.37;3.90;;;;;;;13.60;100.00;99498.78;4997269;28;20272;-56
2022/11/23 05:56:00;;;;;;;16.30;4.13;;;;;;;13.65;100.00;99488.09;4960247;28;20286;-59
2022/11/23 05:58:28;;;;;;;18.10;3.53;;;;;;;13.79;100.00;99490.44;4953071;29;20286;-57
2022/11/23 06:00:57;;;;;;;;;;;;;;;13.93;100.00;99494.34;4953664;29;20297;-59
2022/11/23 06:03:23;;;;;;;13.80;2.77;;;;;;;13.46;100.00;99503.72;4977424;28;23543;-60
2022/11/23 06:05:49;;;;;;;16.60;3.55;;;;;;;13.40;100.00;99493.94;4949891;28;20274;-59
2022/11/23 06:08:20;;;;;;;14.70;3.07;;;;;;;13.38;100.00;99498.72;4952935;29;20107;-59
2022/11/23 06:10:47;;;;;;;16.63;3.17;;;;;;;13.29;100.00;99492.97;4951366;29;20293;-58
2022/11/23 06:13:13;;;;;;;23.13;3.92;;;;;;;13.62;100.00;99492.13;4953932;28;20266;-60
2022/11/23 06:15:39;;;;;;;18.30;2.78;;;;;;;14.11;100.00;99490.53;4948653;28;20053;-61
2022/11/23 06:18:04;;;;;;;23.83;3.60;;;;;;;13.77;100.00;99493.34;4952595;29;20059;-58
2022/11/23 06:20:43;;;;;;;29.53;3.53;;;;;;;13.39;100.00;99490.41;4947957;29;20032;-59
2022/11/23 06:23:10;;;;;;;13.30;3.47;;;;;;;13.76;100.00;99497.94;4953609;29;20325;-58
2022/11/23 06:25:37;;;;;;;18.30;3.53;;;;;;;13.20;100.00;99493.38;4948125;28;20266;-60
2022/11/23 06:28:09;;;;;;;10.93;3.17;;;;;;;13.52;100.00;99496.53;4953448;29;20031;-60
2022/11/23 06:30:44;;;;;;;19.00;2.80;;;;;;;13.83;100.00;99492.34;4951026;29;20267;-59
2022/11/23 06:33:15;;;;;;;13.43;2.73;;;;;;;12.86;100.00;99500.63;4948797;29;20275;-58
2022/11/23 06:35:59;;;;;;;18.70;3.17;;;;;;;13.88;100.00;99510.41;4947578;28;20286;-59
2022/11/23 06:38:30;;;;;;;19.67;3.90;;;;;;;14.10;100.00;99506.91;5032128;28;20285;-58
2022/11/23 06:41:03;;;;;;;13.47;3.97;;;;;;;14.19;100.00;99502.72;4950119;29;20288;-58
2022/11/23 06:43:30;;;;;;;21.40;4.03;;;;;;;13.35;100.00;99494.66;4945379;29;20286;-59
2022/11/23 06:45:56;;;;;;;;;;;;;;;13.52;100.00;99507.28;4946827;29;20266;-58
2022/11/23 06:48:24;;;;;;;15.20;2.47;;;;;;;13.75;100.00;99500.84;4950779;29;19981;-59
2022/11/23 06:50:50;;;;;;;16.37;3.00;;;;;;;13.75;100.00;99511.59;4951319;29;20799;-58
2022/11/23 06:53:18;;;;;;;15.00;4.00;;;;;;;13.99;100.00;99514.03;4952381;28;20038;-59
2022/11/23 06:55:51;;;;;;;13.93;2.80;;;;;;;13.01;100.00;99514.28;4945966;28;20287;-59
2022/11/23 06:58:18;;;;;;;17.03;2.77;;;;;;;13.36;100.00;99515.09;4951352;29;20302;-58
2022/11/23 07:00:44;;;;;;;13.10;3.43;;;;;;;13.79;100.00;99520.78;4950446;29;20277;-60
2022/11/23 07:03:19;;;;;;;24.00;3.73;;;;;;;13.36;100.00;99525.00;4935296;29;20035;-58
2022/11/23 07:05:51;;;;;;;14.70;2.57;;;;;;;13.66;100.00;99529.22;4949728;29;20290;-58
2022/11/23 07:08:19;;;;;;;22.03;3.23;;;;;;;12.94;100.00;99532.44;4950982;28;20300;-59
2022/11/23 07:10:44;;;;;;;22.70;3.80;;;;;;;13.12;100.00;99536.75;4949167;28;20859;-55
2022/11/23 07:13:14;;;;;;;18.73;2.97;;;;;;;13.93;100.00;99537.34;4950965;29;20040;-58
2022/11/23 07:15:41;;;;;;;20.92;4.70;;;;;;;13.88;100.00;99538.13;4949785;29;20282;-56
2022/11/23 07:18:09;;;;;;;16.40;3.00;;;;;;;13.39;100.00;99535.28;4948683;29;20071;-59
2022/11/23 07:20:37;;;;;;;13.60;2.77;;;;;;;13.30;100.00;99538.34;4948027;29;20295;-58
2022/11/23 07:23:09;;;;;;;17.30;3.53;;;;;;;13.40;100.00;99547.63;4949283;29;20297;-59
2022/11/23 07:25:38;;;;;;;21.77;3.47;;;;;;;13.47;100.00;99557.16;4948717;29;20266;-59
2022/11/23 07:28:06;;;;;;;22.52;3.95;;;;;;;13.22;100.00;99562.09;4949358;28;20270;-60
2022/11/23 07:30:33;;;;;;;16.20;3.60;;;;;;;13.41;100.00;99560.81;4952468;29;20107;-60
2022/11/23 07:33:04;;;;;;;30.37;3.40;;;;;;;13.31;100.00;99556.09;4948389;28;20275;-60
2022/11/23 07:35:31;;;;;;;28.33;3.80;;;;;;;13.12;100.00;99560.06;4930743;29;20282;-60
2022/11/23 07:37:58;;;;;;;16.83;2.60;;;;;;;13.33;100.00;99570.06;4947659;29;20278;-59
2022/11/23 07:40:24;;;;;;;12.60;2.72;;;;;;;13.19;100.00;99558.84;4934212;29;20274;-60
2022/11/23 07:42:50;;;;;;;21.77;4.00;;;;;;;13.01;100.00;99573.34;4948866;29;20058;-59
2022/11/23 07:45:16;;;;;;;23.93;3.93;;;;;;;12.63;100.00;99577.50;4948064;29;20027;-59
2022/11/23 07:47:44;;;;;;;25.53;3.67;;;;;;;13.28;100.00;99583.44;4951119;29;20086;-60
2022/11/23 07:50:12;;;;;;;15.15;2.90;;;;;;;12.90;100.00;99587.63;4951889;29;20289;-59
2022/11/23 07:52:38;;;;;;;22.87;3.80;;;;;;;13.09;100.00;99584.72;4951188;28;20039;-56
2022/11/23 07:55:05;;;;;;;28.57;3.67;;;;;;;12.30;100.00;99584.38;4965397;28;20284;-57
2022/11/23 07:57:30;;;;;;;19.83;3.03;;;;;;;13.01;100.00;99605.53;4988239;28;20298;-58
2022/11/23 07:59:57;;;;;;;17.20;3.10;;;;;;;13.27;100.00;99594.44;4986396;28;20029;-59
2022/11/23 08:02:23;;;;;;;22.63;3.20;;;;;;;13.11;100.00;99598.72;4989691;28;20057;-57
2022/11/23 08:04:49;;;;;;;23.77;4.20;;;;;;;13.03;100.00;99597.22;4988982;28;20269;-59
2022/11/23 08:07:14;;;;;;;16.00;3.70;;;;;;;12.83;100.00;99605.75;4985816;28;20082;-58
2022/11/23 08:09:39;;;;;;;19.73;3.63;;;;;;;13.24;100.00;99592.22;4986144;28;20042;-56
2022/11/23 08:12:05;;;;;;;14.00;3.72;;;;;;;13.32;100.00;99598.00;4986490;28;20030;-59
2022/11/23 08:14:31;;;;;;;27.83;4.20;;;;;;;13.26;100.00;99603.50;4989445;28;20043;-56
2022/11/23 08:16:56;;;;;;;23.17;4.10;;;;;;;13.74;100.00;99601.34;4988304;28;20022;-57
2022/11/23 08:19:22;;;;;;;15.93;3.67;;;;;;;12.84;100.00;99608.19;4986341;28;20126;-60
2022/11/23 08:21:47;;;;;;;20.10;4.10;;;;;;;13.60;100.00;99601.66;4985925;28;20035;-58
2022/11/23 08:24:13;;;;;;;8.80;2.25;;;;;;;13.46;100.00;99598.50;4986648;28;20300;-59
2022/11/23 08:26:39;;;;;;;33.27;3.87;;;;;;;13.51;100.00;99603.16;4989522;28;20045;-59
2022/11/23 08:29:05;;;;;;;28.10;4.32;;;;;;;13.37;100.00;99602.63;4986564;28;20046;-60
2022/11/23 08:31:31;;;;;;;24.40;3.23;;;;;;;13.80;100.00;99612.97;4987726;28;20046;-58
2022/11/23 08:33:56;;;;;;;23.90;3.88;;;;;;;13.75;100.00;99619.91;4992897;28;20042;-58
2022/11/23 08:36:22;;;;;;;10.33;3.47;;;;;;;13.80;100.00;99600.34;4988572;28;20034;-60
2022/11/23 08:38:50;;;;;;;28.40;3.60;;;;;;;13.36;100.00;99595.63;4989126;28;20041;-56
2022/11/23 08:41:20;;;;;;;15.60;2.53;;;;;;;13.04;100.00;99599.69;4986661;28;20081;-57
2022/11/23 08:43:49;;;;;;;23.73;3.30;;;;;;;13.22;100.00;99597.84;4987169;28;20364;-60
2022/11/23 08:46:15;;;;;;;17.57;4.07;;;;;;;13.02;100.00;99607.16;4989589;28;20272;-60
2022/11/23 08:48:41;;;;;;;18.37;4.97;;;;;;;13.60;100.00;99604.34;4988804;28;20288;-58
2022/11/23 08:51:08;;;;;;;16.58;3.00;;;;;;;13.90;100.00;99594.28;4986490;28;20035;-58
2022/11/23 08:53:34;;;;;;;18.30;3.23;;;;;;;14.28;100.00;99605.25;4987500;28;20039;-60
2022/11/23 08:56:02;;;;;;;24.48;4.13;;;;;;;13.95;100.00;99597.03;4987790;28;20353;-59
2022/11/23 08:58:28;;;;;;;13.63;3.67;;;;;;;14.16;100.00;99595.44;4986295;28;20027;-58
2022/11/23 09:00:53;;;;;;;12.53;2.57;;;;;;;14.20;100.00;99604.63;4986761;28;20298;-58
2022/11/23 09:03:19;;;;;;;20.67;3.43;;;;;;;15.27;100.00;99613.31;4989891;28;20074;-59
2022/11/23 09:05:45;;;;;;;19.37;3.17;;;;;;;15.56;100.00;99629.16;4988069;28;20277;-60
2022/11/23 09:08:10;;;;;;;18.60;5.25;;;;;;;16.08;100.00;99607.91;4986981;28;20054;-59
2022/11/23 09:10:36;;;;;;;16.85;3.63;;;;;;;15.54;100.00;99609.72;4988303;28;20027;-60
2022/11/23 09:13:02;;;;;;;21.85;4.22;;;;;;;16.65;100.00;99615.41;4996983;28;20107;-59
2022/11/23 09:15:28;;;;;;;21.17;2.85;;;;;;;16.47;100.00;99604.84;4986480;28;20038;-60
2022/11/23 09:17:56;;;;;;;9.80;2.75;;;;;;;17.35;100.00;99612.28;4988574;28;20035;-59
2022/11/23 09:20:21;;;;;;;18.17;3.57;;;;;;;16.98;100.00;99613.31;4986369;28;20034;-60
2022/11/23 09:22:51;;;;;;;17.23;2.50;;;;;;;17.27;100.00;99613.63;4987418;28;20324;-60
2022/11/23 09:25:17;;;;;;;15.77;3.33;;;;;;;17.13;100.00;99602.53;4985843;28;20307;-62
2022/11/23 09:27:42;;;;;;;15.85;3.03;;;;;;;17.31;100.00;99603.91;4988374;28;20336;-60
2022/11/23 09:30:08;;;;;;;17.40;3.83;;;;;;;16.46;100.00;99597.81;4988226;28;20043;-60
2022/11/23 09:32:34;;;;;;;19.20;3.17;;;;;;;17.24;100.00;99607.97;4990735;28;20337;-61
2022/11/23 09:35:00;;;;;;;17.50;3.27;;;;;;;17.57;100.00;99587.69;4990000;28;20280;-60
2022/11/23 09:37:25;;;;;;;8.90;2.13;;;;;;;18.04;100.00;99593.00;5001096;28;20100;-60
2022/11/23 09:39:50;;;;;;;12.07;2.93;;;;;;;17.88;100.00;99584.09;4997296;28;20038;-61
2022/11/23 09:42:26;;;;;;;17.00;3.28;;;;;;;17.54;100.00;99612.56;4991980;28;20035;-60
2022/11/23 09:45:03;;;;;;;12.97;2.67;;;;;;;17.50;100.00;99584.44;4993912;28;20068;-60
2022/11/23 09:47:44;;;;;;;;;;;;;;;18.18;100.00;99572.38;4993483;28;20043;-60
2022/11/23 09:50:56;;;;;;;13.53;3.70;;;;;;;17.88;100.00;99590.31;4988657;28;19974;-60
2022/11/23 09:53:33;;;;;;;15.47;2.70;;;;;;;18.64;100.00;99575.91;4989069;28;20050;-60
2022/11/23 09:55:58;;;;;;;12.83;2.57;;;;;;;18.75;96.69;99577.47;4992372;28;20054;-60
2022/11/23 09:58:31;;;;;;;12.53;2.10;;;;;;;17.15;100.00;99586.09;4992675;28;20058;-61
2022/11/23 10:01:06;;;;;;;17.57;3.03;;;;;;;19.14;95.31;99564.22;4988559;28;20038;-59
2022/11/23 10:03:39;;;;;;;20.60;3.67;;;;;;;19.59;87.08;99555.94;4992274;28;20034;-60
2022/11/23 10:06:12;;;;;;;8.30;2.40;;;;;;;19.35;90.04;99552.09;4992057;28;20492;-61
2022/11/23 10:08:54;;;;;;;10.57;2.60;;;;;;;18.91;91.47;99547.56;4991955;28;20038;-60
2022/11/23 10:11:41;;;;;;;12.50;3.43;;;;;;;19.01;90.49;99539.41;4987902;28;20062;-60
2022/11/23 10:14:40;;;;;;;16.27;2.67;;;;;;;19.33;87.88;99542.66;4992206;28;20031;-60
2022/11/23 10:17:37;;;;;;;14.17;3.10;;;;;;;18.88;90.72;99538.13;4986883;28;20051;-60
2022/11/23 10:20:12;;;;;;;19.58;2.58;;;;;;;18.57;90.11;99532.13;4991596;28;20057;-60
2022/11/23 10:22:48;;;;;;;15.47;2.80;;;;;;;19.26;88.18;99542.97;4991706;28;20094;-61
2022/11/23 10:25:19;;;;;;;11.52;2.97;;;;;;;19.14;87.53;99535.22;4989739;28;20038;-59
2022/11/23 10:27:48;;;;;;;16.53;2.77;;;;;;;18.91;90.07;99526.72;4992015;28;20039;-60
2022/11/23 10:30:16;;;;;;;15.03;2.53;;;;;;;19.87;84.53;99537.19;4991115;28;20073;-61
2022/11/23 10:32:50;;;;;;;14.53;3.27;;;;;;;18.77;87.90;99541.97;4992070;28;20094;-60
2022/11/23 10:35:37;;;;;;;18.60;2.87;;;;;;;18.90;87.33;99537.81;4991138;28;20039;-60
2022/11/23 10:38:13;;;;;;;10.97;2.10;;;;;;;19.20;85.84;99546.84;4989533;28;20109;-59
2022/11/23 10:40:45;;;;;;;11.68;2.33;;;;;;;19.86;84.02;99551.84;4986033;28;20281;-59
2022/11/23 10:43:16;;;;;;;15.97;2.80;;;;;;;20.16;80.51;99577.84;4985917;28;20042;-60
2022/11/23 10:45:41;;;;;;;16.50;2.40;;;;;;;20.18;78.82;99556.63;4990435;28;20049;-60
2022/11/23 10:48:07;;;;;;;9.55;2.35;;;;;;;20.35;79.86;99544.47;4990719;28;20030;-61
2022/11/23 10:50:43;;;;;;;16.23;3.03;;;;;;;20.16;80.19;99549.88;4992992;28;20042;-61
2022/11/23 10:53:08;;;;;;;11.70;3.05;;;;;;;19.68;81.26;99550.69;4990324;28;20049;-61
2022/11/23 10:55:56;;;;;;;11.80;2.50;;;;;;;19.85;80.29;99540.19;4988212;28;20094;-60
2022/11/23 10:58:35;;;;;;;10.77;2.70;;;;;;;19.68;81.71;99537.94;4989766;28;20023;-61
2022/11/23 11:01:12;;;;;;;17.17;2.87;;;;;;;19.76;78.88;99536.50;4995146;28;20035;-57
2022/11/23 11:03:38;;;;;;;13.03;2.20;;;;;;;21.11;74.72;99549.06;4987564;28;20042;-60
2022/11/23 11:06:04;;;;;;;11.07;2.20;;;;;;;20.09;76.51;99550.25;4989163;28;20094;-61
2022/11/23 11:08:33;;;;;;;8.50;2.75;;;;;;;19.42;80.50;99530.06;4990938;28;20031;-60
2022/11/23 11:11:06;;;;;;;12.30;2.47;;;;;;;19.07;81.88;99537.47;4991223;28;20031;-60
2022/11/23 11:13:42;;;;;;;10.73;2.30;;;;;;;18.11;89.02;99522.38;4989582;28;20041;-60
2022/11/23 11:16:27;;;;;;;8.68;2.03;;;;;;;17.58;92.88;99554.16;4989234;28;20065;-60
2022/11/23 11:18:56;;;;;;;10.23;2.33;;;;;;;16.92;100.00;99526.09;4987083;28;20093;-60
2022/11/23 11:21:39;;;;;;;16.17;2.13;;;;;;;16.64;100.00;99525.53;4989995;28;20089;-57
2022/11/23 11:24:16;;;;;;;14.77;2.57;;;;;;;15.75;100.00;99524.41;4985014;28;20080;-60
2022/11/23 11:26:57;;;;;;;15.55;2.60;;;;;;;15.88;100.00;99528.53;4989795;28;20307;-59
2022/11/23 11:29:29;;;;;;;11.77;2.50;;;;;;;16.24;100.00;99518.97;4990433;28;20047;-57
2022/11/23 11:32:12;;;;;;;10.47;1.90;;;;;;;16.81;100.00;99516.34;4990191;28;20280;-59